createdAt,value
2022-08-14T00:01:03.991Z,43.78
2022-08-14T00:03:40.411Z,43.11
2022-08-14T00:06:13.879Z,43.52
2022-08-14T00:08:52.066Z,43.96
2022-08-14T00:11:19.601Z,44.24
2022-08-14T00:13:52.507Z,43.98
2022-08-14T00:16:41.120Z,44.01
2022-08-14T00:19:19.277Z,44.35
2022-08-14T00:21:47.197Z,42.96
2022-08-14T00:24:13.856Z,43.06
2022-08-14T00:26:55.580Z,43.66
2022-08-14T00:29:25.506Z,44.05
2022-08-14T00:31:53.883Z,44.73
2022-08-14T00:34:36.321Z,44.48
2022-08-14T00:37:09.800Z,45.01
2022-08-14T00:39:37.252Z,45.14
2022-08-14T00:42:04.918Z,45.63
2022-08-14T00:44:33.358Z,45.56
2022-08-14T00:47:06.086Z,45.75
2022-08-14T00:49:42.851Z,46.17
2022-08-14T00:52:18.309Z,47.09
2022-08-14T00:54:46.753Z,47.11
2022-08-14T00:57:13.857Z,45.48
2022-08-14T00:59:41.342Z,45.48
2022-08-14T01:02:09.334Z,47.44
2022-08-14T01:04:51.738Z,47.56
2022-08-14T01:07:22.653Z,46.62
2022-08-14T01:09:52.428Z,47.89
2022-08-14T01:12:26.959Z,46.61
2022-08-14T01:14:58.550Z,46.77
2022-08-14T01:17:46.015Z,46.28
2022-08-14T01:20:35.843Z,45.93
2022-08-14T01:23:15.773Z,47.19
2022-08-14T01:25:45.961Z,48.22
2022-08-14T01:28:46.601Z,47.07
2022-08-14T01:30:59.952Z,47.28
2022-08-14T01:33:30.198Z,48.73
2022-08-14T01:36:05.658Z,46.80
2022-08-14T01:38:37.105Z,48.56
2022-08-14T01:41:14.962Z,50.34
2022-08-14T01:43:56.036Z,49.06
2022-08-14T01:46:25.357Z,47.53
2022-08-14T01:49:01.458Z,48.32
2022-08-14T01:51:28.825Z,47.75
2022-08-14T01:54:00.756Z,47.99
2022-08-14T01:56:49.597Z,47.64
2022-08-14T01:59:37.617Z,48.51
2022-08-14T02:02:14.762Z,48.08
2022-08-14T02:04:55.962Z,48.08
2022-08-14T02:07:34.653Z,47.83
2022-08-14T02:10:13.279Z,48.10
2022-08-14T02:12:42.549Z,51.90
2022-08-14T02:15:10.688Z,50.96
2022-08-14T02:17:37.546Z,51.23
2022-08-14T02:20:05.643Z,50.24
2022-08-14T02:22:33.079Z,51.28
2022-08-14T02:25:01.212Z,50.97
2022-08-14T02:28:24.233Z,50.83
2022-08-14T02:30:15.972Z,51.31
2022-08-14T02:32:43.405Z,50.78
2022-08-14T02:35:18.699Z,49.82
2022-08-14T02:37:49.149Z,50.38
2022-08-14T02:40:20.902Z,52.29
2022-08-14T02:43:00.046Z,51.17
2022-08-14T02:45:38.641Z,50.04
2022-08-14T02:49:02.843Z,50.46
2022-08-14T02:51:00.493Z,51.96
2022-08-14T02:53:29.282Z,50.48
2022-08-14T02:55:56.652Z,52.24
2022-08-14T02:58:31.096Z,51.72
2022-08-14T03:00:59.228Z,53.08
2022-08-14T03:03:26.438Z,52.02
2022-08-14T03:05:54.346Z,53.13
2022-08-14T03:08:22.411Z,51.77
2022-08-14T03:10:50.275Z,51.61
2022-08-14T03:13:21.249Z,53.47
2022-08-14T03:15:55.796Z,52.01
2022-08-14T03:18:30.767Z,52.02
2022-08-14T03:21:05.159Z,52.38
2022-08-14T03:23:37.734Z,51.90
2022-08-14T03:26:18.282Z,52.73
2022-08-14T03:28:56.648Z,51.49
2022-08-14T03:31:29.364Z,54.13
2022-08-14T03:34:00.078Z,55.57
2022-08-14T03:37:50.921Z,53.11
2022-08-14T03:39:22.219Z,53.50
2022-08-14T03:41:56.343Z,53.10
2022-08-14T03:45:18.685Z,53.54
2022-08-14T03:47:15.355Z,52.72
2022-08-14T03:49:44.724Z,52.52
2022-08-14T03:52:37.763Z,52.57
2022-08-14T03:55:00.856Z,54.24
2022-08-14T03:57:32.356Z,53.37
2022-08-14T04:00:04.036Z,53.80
2022-08-14T04:02:33.060Z,53.44
2022-08-14T04:05:12.291Z,53.71
2022-08-14T04:08:08.506Z,53.38
2022-08-14T04:10:32.101Z,54.05
2022-08-14T04:12:59.998Z,54.27
2022-08-14T04:15:30.547Z,53.54
2022-08-14T04:17:58.909Z,56.13
2022-08-14T04:20:27.158Z,56.13
2022-08-14T04:22:55.576Z,55.65
2022-08-14T04:25:22.463Z,55.49
2022-08-14T04:28:02.445Z,57.11
2022-08-14T04:30:33.045Z,56.15
2022-08-14T04:33:10.699Z,57.09
2022-08-14T04:35:55.254Z,58.47
2022-08-14T04:38:42.598Z,58.48
2022-08-14T04:41:30.232Z,57.96
2022-08-14T04:43:57.691Z,59.40
2022-08-14T04:46:54.761Z,59.10
2022-08-14T04:49:11.629Z,59.01
2022-08-14T04:51:53.539Z,59.23
2022-08-14T04:54:24.626Z,59.53
2022-08-14T04:56:51.218Z,59.95
2022-08-14T04:59:22.063Z,59.44
2022-08-14T05:01:52.852Z,59.86
2022-08-14T05:04:21.741Z,58.79
2022-08-14T05:06:53.750Z,59.11
2022-08-14T05:09:22.199Z,58.98
2022-08-14T05:11:50.394Z,59.63
2022-08-14T05:14:45.465Z,59.66
2022-08-14T05:17:05.232Z,59.55
2022-08-14T05:19:33.726Z,60.02
2022-08-14T05:22:17.034Z,59.76
2022-08-14T05:24:50.579Z,59.50
2022-08-14T05:27:20.042Z,59.42
2022-08-14T05:29:50.294Z,59.84
2022-08-14T05:32:17.035Z,59.46
2022-08-14T05:34:45.781Z,59.16
2022-08-14T05:37:13.042Z,58.24
2022-08-14T05:39:43.002Z,58.48
2022-08-14T05:42:21.723Z,57.72
2022-08-14T05:44:54.161Z,56.68
2022-08-14T05:47:22.017Z,56.55
2022-08-14T05:49:48.545Z,56.07
2022-08-14T05:52:17.959Z,55.04
2022-08-14T05:54:44.873Z,54.86
2022-08-14T05:57:11.436Z,54.70
2022-08-14T05:59:39.582Z,54.01
2022-08-14T06:02:10.674Z,53.90
2022-08-14T06:04:38.858Z,54.01
2022-08-14T06:07:06.379Z,53.49
2022-08-14T06:09:36.059Z,53.74
2022-08-14T06:12:09.145Z,53.38
2022-08-14T06:14:36.920Z,53.09
2022-08-14T06:17:04.560Z,53.09
2022-08-14T06:19:31.441Z,52.72
2022-08-14T06:21:59.006Z,52.34
2022-08-14T06:24:26.389Z,51.74
2022-08-14T06:26:56.642Z,51.52
2022-08-14T06:29:23.832Z,51.40
2022-08-14T06:31:54.607Z,51.16
2022-08-14T06:35:03.395Z,49.91
2022-08-14T06:37:13.478Z,50.72
2022-08-14T06:39:44.279Z,50.46
2022-08-14T06:42:32.696Z,50.30
2022-08-14T06:44:57.957Z,49.59
2022-08-14T06:47:25.018Z,49.75
2022-08-14T06:49:57.660Z,49.17
2022-08-14T06:52:24.969Z,49.58
2022-08-14T06:54:51.554Z,49.51
2022-08-14T06:57:18.626Z,48.94
2022-08-14T06:59:48.061Z,48.30
2022-08-14T07:02:52.026Z,47.86
2022-08-14T07:05:39.707Z,47.31
2022-08-14T07:08:28.737Z,47.48
2022-08-14T07:11:00.174Z,46.10
2022-08-14T07:13:28.381Z,47.00
2022-08-14T07:15:58.542Z,46.59
2022-08-14T07:18:30.946Z,45.14
2022-08-14T07:21:00.556Z,45.20
2022-08-14T07:23:27.642Z,45.09
2022-08-14T07:25:59.181Z,45.19
2022-08-14T07:28:30.002Z,44.25
2022-08-14T07:31:04.280Z,43.56
2022-08-14T07:33:36.553Z,44.09
2022-08-14T07:36:26.566Z,41.92
2022-08-14T07:38:53.472Z,43.32
2022-08-14T07:41:20.005Z,42.56
2022-08-14T07:43:47.460Z,41.43
2022-08-14T07:46:21.340Z,40.82
2022-08-14T07:48:56.839Z,41.52
2022-08-14T07:51:23.472Z,41.67
2022-08-14T07:53:50.274Z,40.55
2022-08-14T07:56:47.460Z,40.42
2022-08-14T07:59:11.583Z,40.25
2022-08-14T08:01:51.210Z,40.14
2022-08-14T08:04:24.972Z,40.18
2022-08-14T08:06:52.599Z,40.10
2022-08-14T08:09:31.988Z,39.40
2022-08-14T08:12:04.893Z,37.36
2022-08-14T08:14:55.452Z,38.78
2022-08-14T08:17:25.901Z,40.42
2022-08-14T08:19:52.473Z,39.63
2022-08-14T08:22:22.283Z,39.40
2022-08-14T08:24:54.826Z,39.15
2022-08-14T08:27:24.517Z,39.63
2022-08-14T08:29:51.821Z,40.46
2022-08-14T08:32:18.863Z,40.47
2022-08-14T08:34:48.453Z,40.04
2022-08-14T08:37:15.780Z,39.01
2022-08-14T08:40:01.998Z,39.31
2022-08-14T08:42:31.417Z,37.08
2022-08-14T08:45:06.541Z,37.30
2022-08-14T08:47:40.325Z,36.05
2022-08-14T08:50:23.465Z,35.41
2022-08-14T08:53:02.792Z,36.17
2022-08-14T08:55:43.697Z,34.30
2022-08-14T08:58:20.318Z,34.21
2022-08-14T09:00:54.755Z,35.85
2022-08-14T09:03:27.522Z,36.67
2022-08-14T09:06:01.498Z,35.65
2022-08-14T09:08:33.040Z,35.04
2022-08-14T09:11:18.890Z,35.33
2022-08-14T09:13:49.986Z,35.26
2022-08-14T09:16:19.960Z,34.85
2022-08-14T09:18:46.927Z,33.08
2022-08-14T09:21:16.132Z,33.20
2022-08-14T09:24:26.954Z,33.25
2022-08-14T09:26:30.017Z,32.21
2022-08-14T09:28:59.050Z,32.49
2022-08-14T09:31:27.384Z,31.74
2022-08-14T09:34:58.768Z,31.25
2022-08-14T09:37:34.722Z,31.12
2022-08-14T09:40:20.631Z,31.10
2022-08-14T09:43:14.363Z,31.12
2022-08-14T09:45:53.041Z,31.41
2022-08-14T09:48:27.560Z,31.07
2022-08-14T09:50:57.792Z,32.17
2022-08-14T09:54:19.524Z,32.39
2022-08-14T09:56:31.015Z,32.43
2022-08-14T09:59:00.334Z,31.28
2022-08-14T10:01:35.398Z,30.84
2022-08-14T10:04:13.509Z,31.13
2022-08-14T10:06:54.395Z,32.22
2022-08-14T10:09:21.259Z,30.69
2022-08-14T10:11:58.713Z,29.94
2022-08-14T10:14:35.798Z,31.19
2022-08-14T10:17:06.314Z,30.83
2022-08-14T10:19:36.482Z,31.90
2022-08-14T10:23:14.782Z,30.89
2022-08-14T10:24:57.352Z,31.67
2022-08-14T10:27:27.116Z,30.97
2022-08-14T10:30:04.500Z,30.46
2022-08-14T10:32:36.605Z,29.90
2022-08-14T10:35:14.312Z,30.72
2022-08-14T10:37:46.700Z,30.65
2022-08-14T10:40:37.658Z,30.68
2022-08-14T10:43:25.315Z,31.77
2022-08-14T10:46:04.196Z,30.31
2022-08-14T10:48:55.035Z,31.07
2022-08-14T10:51:30.300Z,29.40
2022-08-14T10:54:35.509Z,28.91
2022-08-14T10:56:57.475Z,29.64
2022-08-14T10:59:30.631Z,29.60
2022-08-14T11:01:59.815Z,30.34
2022-08-14T11:04:30.351Z,27.56
2022-08-14T11:06:57.935Z,27.21
2022-08-14T11:09:31.402Z,28.09
2022-08-14T11:12:34.391Z,28.22
2022-08-14T11:15:02.184Z,26.85
2022-08-14T11:17:32.740Z,25.46
2022-08-14T11:20:00.988Z,26.24
2022-08-14T11:22:55.811Z,27.38
2022-08-14T11:25:20.410Z,27.13
2022-08-14T11:27:49.190Z,27.14
2022-08-14T11:30:50.848Z,27.07
2022-08-14T11:33:09.360Z,27.53
2022-08-14T11:35:44.178Z,26.75
2022-08-14T11:38:17.251Z,26.82
2022-08-14T11:40:46.904Z,27.00
2022-08-14T11:43:14.776Z,26.58
2022-08-14T11:45:47.759Z,27.43
2022-08-14T11:49:02.970Z,28.11
2022-08-14T11:51:17.776Z,26.73
2022-08-14T11:53:51.940Z,26.00
2022-08-14T11:56:18.759Z,26.88
2022-08-14T11:58:54.280Z,26.46
2022-08-14T12:01:30.967Z,26.04
2022-08-14T12:04:32.085Z,24.62
2022-08-14T12:06:57.974Z,24.62
2022-08-14T12:09:33.369Z,25.05
2022-08-14T12:12:01.831Z,25.29
2022-08-14T12:14:30.461Z,24.19
2022-08-14T12:17:11.946Z,25.50
2022-08-14T12:19:56.793Z,24.13
2022-08-14T12:22:42.323Z,24.38
2022-08-14T12:25:14.655Z,23.98
2022-08-14T12:27:53.639Z,23.96
2022-08-14T12:30:37.646Z,24.15
2022-08-14T12:33:19.590Z,23.57
2022-08-14T12:35:46.161Z,24.18
2022-08-14T12:38:19.393Z,23.60
2022-08-14T12:40:53.767Z,24.94
2022-08-14T12:43:22.613Z,24.68
2022-08-14T12:45:52.040Z,25.89
2022-08-14T12:48:21.279Z,25.58
2022-08-14T12:50:58.384Z,24.92
2022-08-14T12:53:36.347Z,24.74
2022-08-14T12:56:21.431Z,24.37
2022-08-14T12:58:58.290Z,24.39
2022-08-14T13:02:00.178Z,23.63
2022-08-14T13:04:21.787Z,23.72
2022-08-14T13:06:51.783Z,23.73
2022-08-14T13:09:19.531Z,23.70
2022-08-14T13:11:58.951Z,23.84
2022-08-14T13:14:43.869Z,23.99
2022-08-14T13:17:11.687Z,24.20
2022-08-14T13:19:40.578Z,23.85
2022-08-14T13:22:10.153Z,24.21
2022-08-14T13:24:47.892Z,24.53
2022-08-14T13:27:14.929Z,23.80
2022-08-14T13:29:47.217Z,24.19
2022-08-14T13:32:15.065Z,23.51
2022-08-14T13:34:45.322Z,24.26
2022-08-14T13:37:14.797Z,23.94
2022-08-14T13:39:47.584Z,23.72
2022-08-14T13:42:30.740Z,22.72
2022-08-14T13:45:01.003Z,23.15
2022-08-14T13:47:30.232Z,22.39
2022-08-14T13:50:00.538Z,22.33
2022-08-14T13:52:52.485Z,22.56
2022-08-14T13:55:25.581Z,23.47
2022-08-14T13:58:04.135Z,23.48
2022-08-14T14:00:51.883Z,24.16
2022-08-14T14:03:22.561Z,23.72
2022-08-14T14:05:54.986Z,24.31
2022-08-14T14:08:45.751Z,24.28
2022-08-14T14:11:16.491Z,24.33
2022-08-14T14:13:46.412Z,24.00
2022-08-14T14:16:22.033Z,23.39
2022-08-14T14:18:56.379Z,22.73
2022-08-14T14:21:30.580Z,23.14
2022-08-14T14:23:59.422Z,23.22
2022-08-14T14:26:33.200Z,23.54
2022-08-14T14:29:03.878Z,23.52
2022-08-14T14:31:31.161Z,23.47
2022-08-14T14:34:07.280Z,23.16
2022-08-14T14:36:50.202Z,23.45
2022-08-14T14:39:25.338Z,23.29
2022-08-14T14:41:57.514Z,23.40
2022-08-14T14:44:26.818Z,23.31
2022-08-14T14:46:53.723Z,23.00
2022-08-14T14:49:22.231Z,23.26
2022-08-14T14:51:58.701Z,23.96
2022-08-14T14:54:31.639Z,23.73
2022-08-14T14:57:04.925Z,24.03
2022-08-14T14:59:37.296Z,24.42
2022-08-14T15:02:08.127Z,24.42
2022-08-14T15:04:37.918Z,24.88
2022-08-14T15:07:06.158Z,25.12
2022-08-14T15:09:34.227Z,24.97
2022-08-14T15:12:05.537Z,25.25
2022-08-14T15:14:55.276Z,25.12
2022-08-14T15:17:24.273Z,25.56
2022-08-14T15:19:56.721Z,25.35
2022-08-14T15:22:25.319Z,25.79
2022-08-14T15:24:51.977Z,25.53
2022-08-14T15:27:26.192Z,26.20
2022-08-14T15:29:53.328Z,25.63
2022-08-14T15:32:22.972Z,26.48
2022-08-14T15:34:52.896Z,26.30
2022-08-14T15:37:22.980Z,26.11
2022-08-14T15:39:52.724Z,26.22
2022-08-14T15:42:22.990Z,25.83
2022-08-14T15:44:57.860Z,26.40
2022-08-14T15:47:30.070Z,25.61
2022-08-14T15:50:00.811Z,26.53
2022-08-14T15:52:35.379Z,26.04
2022-08-14T15:55:14.691Z,26.21
2022-08-14T15:58:01.646Z,26.18
2022-08-14T16:00:49.954Z,26.06
2022-08-14T16:03:27.967Z,26.74
2022-08-14T16:06:10.728Z,26.95
2022-08-14T16:08:38.297Z,26.40
2022-08-14T16:11:07.184Z,26.53
2022-08-14T16:13:39.192Z,26.29
2022-08-14T16:16:34.990Z,26.33
2022-08-14T16:19:17.463Z,25.37
2022-08-14T16:24:33.365Z,25.93
2022-08-14T16:27:01.420Z,26.25
2022-08-14T16:29:30.550Z,25.84
2022-08-14T16:32:00.201Z,25.88
2022-08-14T16:34:44.975Z,25.38
2022-08-14T16:37:16.520Z,25.40
2022-08-14T16:39:43.908Z,25.51
2022-08-14T16:40:24.149Z,26.40
2022-08-14T16:42:39.533Z,25.48
2022-08-14T16:44:59.857Z,25.35
2022-08-14T16:47:35.161Z,25.58
2022-08-14T16:50:08.709Z,25.91
2022-08-14T16:52:44.097Z,26.71
2022-08-14T16:55:13.800Z,26.79
2022-08-14T16:57:54.896Z,27.16
2022-08-14T17:00:43.482Z,27.20
2022-08-14T17:03:12.557Z,26.78
2022-08-14T17:05:43.106Z,26.89
2022-08-14T17:08:32.583Z,27.41
2022-08-14T17:10:56.658Z,27.30
2022-08-14T17:13:58.794Z,26.95
2022-08-14T17:16:24.260Z,26.48
2022-08-14T17:19:03.687Z,26.74
2022-08-14T17:21:38.449Z,27.02
2022-08-14T17:24:57.483Z,26.81
2022-08-14T17:27:04.061Z,27.26
2022-08-14T17:29:34.920Z,27.45
2022-08-14T17:32:28.004Z,28.15
2022-08-14T17:35:01.613Z,27.86
2022-08-14T17:37:55.495Z,28.08
2022-08-14T17:40:24.239Z,28.00
2022-08-14T17:43:00.830Z,28.57
2022-08-14T17:45:41.228Z,27.67
2022-08-14T17:49:13.874Z,29.29
2022-08-14T17:51:15.117Z,28.92
2022-08-14T17:53:53.703Z,29.32
2022-08-14T17:56:29.004Z,29.16
2022-08-14T17:59:02.583Z,29.39
2022-08-14T18:01:35.545Z,29.56
2022-08-14T18:04:05.571Z,29.25
2022-08-14T18:06:57.887Z,29.99
2022-08-14T18:09:56.482Z,30.09
2022-08-14T18:12:31.859Z,30.20
2022-08-14T18:15:06.770Z,29.95
2022-08-14T18:17:53.064Z,30.60
2022-08-14T18:21:40.515Z,30.04
2022-08-14T18:23:13.504Z,30.66
2022-08-14T18:25:48.478Z,31.27
2022-08-14T18:28:32.208Z,31.50
2022-08-14T18:31:26.829Z,33.83
2022-08-14T18:34:12.246Z,32.68
2022-08-14T18:36:58.058Z,35.12
2022-08-14T18:39:34.739Z,34.74
2022-08-14T18:42:23.468Z,34.05
2022-08-14T18:44:50.719Z,33.86
2022-08-14T18:47:20.358Z,33.50
2022-08-14T18:49:54.356Z,36.35
2022-08-14T18:52:22.632Z,34.79
2022-08-14T18:54:59.598Z,34.37
2022-08-14T18:57:27.219Z,34.93
2022-08-14T19:00:33.353Z,37.41
2022-08-14T19:03:04.766Z,35.21
2022-08-14T19:05:47.582Z,36.74
2022-08-14T19:08:17.484Z,36.75
2022-08-14T19:10:52.450Z,36.82
2022-08-14T19:13:48.720Z,37.36
2022-08-14T19:16:17.128Z,36.79
2022-08-14T19:18:53.103Z,38.74
2022-08-14T19:21:38.498Z,40.02
2022-08-14T19:24:30.346Z,41.13
2022-08-14T19:27:16.700Z,42.19
2022-08-14T19:29:47.992Z,40.57
2022-08-14T19:32:40.794Z,42.37
2022-08-14T19:35:18.206Z,42.19
2022-08-14T19:37:52.454Z,41.59
2022-08-14T19:40:41.956Z,42.37
2022-08-14T19:43:22.702Z,39.59
2022-08-14T19:46:38.104Z,39.75
2022-08-14T19:48:57.213Z,40.37
2022-08-14T19:51:24.589Z,42.24
2022-08-14T19:54:13.475Z,42.60
2022-08-14T19:56:42.920Z,41.43
2022-08-14T19:59:18.085Z,42.12
2022-08-14T20:01:48.446Z,40.67
2022-08-14T20:04:45.280Z,43.70
2022-08-14T20:07:09.263Z,43.16
2022-08-14T20:11:04.237Z,43.01
2022-08-14T20:12:36.124Z,42.50
2022-08-14T20:15:17.984Z,42.34
2022-08-14T20:17:53.687Z,43.37
2022-08-14T20:20:30.894Z,41.93
2022-08-14T20:23:11.349Z,44.40
2022-08-14T20:25:57.148Z,42.34
2022-08-14T20:28:32.760Z,43.68
2022-08-14T20:31:17.938Z,45.50
2022-08-14T20:34:24.675Z,46.49
2022-08-14T20:37:27.812Z,47.17
2022-08-14T20:39:55.822Z,43.50
2022-08-14T20:42:43.377Z,45.43
2022-08-14T20:45:23.839Z,45.73
2022-08-14T20:48:07.295Z,46.54
2022-08-14T20:50:36.405Z,44.40
2022-08-14T20:53:58.179Z,46.91
2022-08-14T20:56:28.378Z,45.12
2022-08-14T20:58:56.399Z,45.24
2022-08-14T21:01:23.180Z,45.32
2022-08-14T21:04:00.312Z,47.53
2022-08-14T21:07:23.468Z,47.77
2022-08-14T21:10:03.292Z,47.33
2022-08-14T21:12:34.337Z,46.95
2022-08-14T21:15:00.161Z,48.04
2022-08-14T21:17:27.453Z,47.21
2022-08-14T21:19:54.095Z,47.27
2022-08-14T21:22:20.720Z,46.38
2022-08-14T21:24:47.975Z,46.72
2022-08-14T21:27:21.807Z,46.95
2022-08-14T21:29:55.287Z,46.96
2022-08-14T21:32:35.085Z,47.77
2022-08-14T21:35:08.759Z,49.33
2022-08-14T21:37:43.671Z,48.11
2022-08-14T21:40:39.902Z,49.23
2022-08-14T21:43:00.797Z,49.37
2022-08-14T21:45:27.741Z,48.97
2022-08-14T21:47:56.356Z,48.52
2022-08-14T21:50:39.784Z,48.53
2022-08-14T21:53:10.593Z,48.49
2022-08-14T21:55:37.427Z,49.04
2022-08-14T21:58:52.224Z,48.70
2022-08-14T22:00:51.561Z,48.99
2022-08-14T22:03:23.511Z,49.39
2022-08-14T22:05:53.484Z,50.27
2022-08-14T22:08:22.506Z,48.97
2022-08-14T22:10:55.019Z,49.69
2022-08-14T22:13:26.394Z,48.45
2022-08-14T22:15:59.468Z,50.05
2022-08-14T22:18:26.999Z,49.51
2022-08-14T22:20:56.934Z,52.35
2022-08-14T22:23:24.792Z,48.69
2022-08-14T22:25:53.559Z,48.56
2022-08-14T22:28:32.720Z,50.51
2022-08-14T22:31:02.349Z,50.97
2022-08-14T22:33:31.290Z,51.32
2022-08-14T22:36:00.423Z,50.89
2022-08-14T22:38:35.330Z,50.90
2022-08-14T22:41:26.198Z,49.28
2022-08-14T22:43:56.140Z,48.84
2022-08-14T22:46:23.636Z,49.08
2022-08-14T22:48:51.298Z,49.01
2022-08-14T22:51:21.514Z,48.61
2022-08-14T22:53:52.440Z,49.43
2022-08-14T22:56:22.216Z,49.20
2022-08-14T22:58:57.990Z,49.56
2022-08-14T23:02:03.711Z,51.93
2022-08-14T23:04:34.928Z,52.31
2022-08-14T23:07:23.124Z,52.71
2022-08-14T23:10:34.116Z,53.09
2022-08-14T23:12:47.411Z,54.31
2022-08-14T23:15:23.841Z,50.48
2022-08-14T23:17:51.042Z,52.50
2022-08-14T23:20:21.445Z,50.89
2022-08-14T23:22:52.639Z,53.14
2022-08-14T23:25:57.978Z,50.52
2022-08-14T23:28:33.776Z,50.05
2022-08-14T23:31:01.519Z,49.36
2022-08-14T23:33:28.637Z,48.67
2022-08-14T23:35:59.648Z,48.88
2022-08-14T23:38:30.464Z,46.96
2022-08-14T23:41:00.753Z,46.71
2022-08-14T23:43:31.146Z,45.93
2022-08-14T23:45:58.759Z,45.86
2022-08-14T23:48:28.120Z,44.84
2022-08-14T23:50:55.468Z,45.38
2022-08-14T23:53:48.503Z,45.43
2022-08-14T23:56:32.267Z,45.00
2022-08-14T23:59:00.953Z,45.43
